createdAt,value
2023-05-16T00:01:16.852Z,97272.25
2023-05-16T00:05:22.435Z,97277.03
2023-05-16T00:09:25.691Z,97278.66
2023-05-16T00:13:30.128Z,97266.34
2023-05-16T00:17:33.130Z,97262.81
2023-05-16T00:21:38.308Z,97257.94
2023-05-16T00:25:41.436Z,97239.56
2023-05-16T00:29:44.965Z,97253.34
2023-05-16T00:33:47.945Z,97237.34
2023-05-16T00:37:53.567Z,97241.88
2023-05-16T00:41:57.313Z,97247.53
2023-05-16T00:46:01.383Z,97236.13
2023-05-16T00:50:05.978Z,97234.31
2023-05-16T00:54:10.803Z,97242.13
2023-05-16T00:58:15.342Z,97243.50
2023-05-16T01:02:19.032Z,97247.25
2023-05-16T01:06:22.598Z,97248.63
2023-05-16T01:10:32.911Z,97251.41
2023-05-16T01:18:42.180Z,97247.53
2023-05-16T01:28:21.958Z,97164.84
2023-05-16T01:32:27.935Z,97198.31
2023-05-16T01:37:33.532Z,97162.69
2023-05-16T01:42:15.256Z,97206.81
2023-05-16T01:47:05.919Z,97219.84
2023-05-16T01:56:28.229Z,97172.50
2023-05-16T02:05:17.006Z,97152.66
2023-05-16T02:13:51.328Z,97149.38
2023-05-16T02:18:15.200Z,97165.13
2023-05-16T02:22:34.888Z,97183.94
2023-05-16T02:26:38.162Z,97248.69
2023-05-16T02:30:41.880Z,97242.97
2023-05-16T02:34:45.599Z,97234.81
2023-05-16T02:38:50.436Z,97234.47
2023-05-16T02:42:54.448Z,97242.13
2023-05-16T02:46:58.598Z,97220.19
2023-05-16T02:51:01.782Z,97174.28
2023-05-16T02:55:21.676Z,97219.50
2023-05-16T02:59:23.433Z,97220.78
2023-05-16T03:03:27.047Z,97212.00
2023-05-16T03:07:30.573Z,97218.81
2023-05-16T03:11:36.386Z,97227.31
2023-05-16T03:15:40.448Z,97225.31
2023-05-16T03:19:43.672Z,97221.75
2023-05-16T03:23:47.060Z,97212.94
2023-05-16T03:27:51.758Z,97215.38
2023-05-16T03:31:55.392Z,97209.31
2023-05-16T03:35:58.809Z,97204.94
2023-05-16T03:40:05.657Z,97209.31
2023-05-16T03:44:10.237Z,97194.34
2023-05-16T03:48:13.650Z,97200.50
2023-05-16T03:52:16.838Z,97204.09
2023-05-16T03:56:20.323Z,97209.97
2023-05-16T04:00:24.677Z,97205.38
2023-05-16T04:04:27.920Z,97199.81
2023-05-16T04:08:31.263Z,97216.72
2023-05-16T04:12:34.673Z,97215.59
2023-05-16T04:16:39.252Z,97213.91
2023-05-16T04:20:44.070Z,97213.03
2023-05-16T04:24:47.146Z,97213.13
2023-05-16T04:28:50.661Z,97208.03
2023-05-16T04:32:55.432Z,97213.81
2023-05-16T04:36:59.435Z,97231.22
2023-05-16T04:41:04.300Z,97222.50
2023-05-16T04:45:11.527Z,97212.25
2023-05-16T04:49:16.812Z,97202.91
2023-05-16T04:53:20.165Z,97199.94
2023-05-16T04:57:23.711Z,97192.69
2023-05-16T05:01:27.079Z,97197.25
2023-05-16T05:05:32.417Z,97214.25
2023-05-16T05:09:36.290Z,97199.19
2023-05-16T05:13:39.625Z,97184.09
2023-05-16T05:17:43.474Z,97185.25
2023-05-16T05:21:47.904Z,97188.19
2023-05-16T05:25:51.447Z,97193.09
2023-05-16T05:29:55.092Z,97215.41
2023-05-16T05:33:58.764Z,97198.91
2023-05-16T05:38:03.606Z,97198.59
2023-05-16T05:42:07.143Z,97199.06
2023-05-16T05:46:10.507Z,97203.16
2023-05-16T05:50:14.014Z,97196.78
2023-05-16T05:58:21.221Z,97219.84
2023-05-16T06:02:24.345Z,97224.31
2023-05-16T06:06:27.940Z,97233.59
2023-05-16T06:10:31.474Z,97224.56
2023-05-16T06:14:36.677Z,97220.53
2023-05-16T06:18:39.850Z,97212.28
2023-05-16T06:22:43.123Z,97204.00
2023-05-16T06:26:50.156Z,97205.44
2023-05-16T06:30:55.741Z,97209.88
2023-05-16T06:34:58.844Z,97204.63
2023-05-16T06:39:02.151Z,97205.81
2023-05-16T06:43:05.427Z,97217.50
2023-05-16T06:47:10.027Z,97217.66
2023-05-16T06:51:13.264Z,97219.00
2023-05-16T06:55:17.587Z,97214.38
2023-05-16T06:59:21.128Z,97216.22
2023-05-16T07:03:26.509Z,97211.69
2023-05-16T07:07:29.821Z,97204.69
2023-05-16T07:11:33.404Z,97209.63
2023-05-16T07:15:36.811Z,97209.78
2023-05-16T07:19:42.175Z,97203.31
2023-05-16T07:23:45.756Z,97204.47
2023-05-16T07:27:49.109Z,97197.16
2023-05-16T07:31:52.479Z,97202.44
2023-05-16T07:36:12.155Z,97216.34
2023-05-16T07:40:21.485Z,97213.84
2023-05-16T07:44:24.916Z,97212.34
2023-05-16T07:48:28.485Z,97218.69
2023-05-16T07:52:33.781Z,97224.78
2023-05-16T07:56:39.227Z,97231.28
2023-05-16T08:00:43.054Z,97242.31
2023-05-16T08:04:46.956Z,97237.25
2023-05-16T08:08:52.638Z,97242.16
2023-05-16T08:12:56.040Z,97245.13
2023-05-16T08:16:59.849Z,97236.44
2023-05-16T08:21:03.130Z,97234.19
2023-05-16T08:25:09.511Z,97223.78
2023-05-16T08:29:12.515Z,97235.03
2023-05-16T08:33:16.741Z,97228.22
2023-05-16T08:37:19.966Z,97226.03
2023-05-16T08:41:25.172Z,97223.22
2023-05-16T08:45:28.687Z,97231.44
2023-05-16T08:49:33.248Z,97221.53
2023-05-16T08:53:43.190Z,97210.84
2023-05-16T08:57:48.450Z,97206.44
2023-05-16T09:01:53.428Z,97183.75
2023-05-16T09:05:57.291Z,97176.50
2023-05-16T09:10:00.798Z,97170.41
2023-05-16T09:14:06.662Z,97175.47
2023-05-16T09:18:14.052Z,97169.19
2023-05-16T09:22:17.579Z,97169.97
2023-05-16T09:26:22.240Z,97179.25
2023-05-16T09:30:31.858Z,97179.13
2023-05-16T09:34:39.984Z,97162.72
2023-05-16T09:38:43.599Z,97160.94
2023-05-16T09:42:47.934Z,97166.50
2023-05-16T09:46:56.386Z,97158.31
2023-05-16T09:51:04.235Z,97170.69
2023-05-16T09:55:09.406Z,97163.00
2023-05-16T09:59:13.322Z,97158.97
2023-05-16T10:03:18.777Z,97180.75
2023-05-16T10:07:23.683Z,97189.97
2023-05-16T10:11:27.259Z,97211.00
2023-05-16T10:15:31.443Z,97217.06
2023-05-16T10:19:39.365Z,97211.72
2023-05-16T10:23:44.256Z,97220.44
2023-05-16T10:27:48.336Z,97208.00
2023-05-16T10:31:51.868Z,97200.25
2023-05-16T10:35:57.502Z,97217.59
2023-05-16T10:40:02.697Z,97219.28
2023-05-16T10:44:06.705Z,97213.25
2023-05-16T10:48:13.400Z,97205.00
2023-05-16T10:52:18.836Z,97198.56
2023-05-16T10:56:24.504Z,97207.72
2023-05-16T11:00:28.295Z,97205.34
2023-05-16T11:04:51.098Z,97213.09
2023-05-16T11:09:06.903Z,97213.50
2023-05-16T11:13:10.037Z,97231.31
2023-05-16T11:17:17.107Z,97202.78
2023-05-16T11:21:20.739Z,97205.84
2023-05-16T11:25:41.634Z,97210.72
2023-05-16T11:29:44.936Z,97218.19
2023-05-16T11:33:48.481Z,97226.22
2023-05-16T11:37:52.446Z,97238.94
2023-05-16T11:41:58.098Z,97242.34
2023-05-16T11:46:01.994Z,97237.69
2023-05-16T11:50:06.593Z,97228.41
2023-05-16T11:54:11.623Z,97219.94
2023-05-16T11:58:18.331Z,97207.03
2023-05-16T12:02:22.193Z,97174.31
2023-05-16T12:06:25.893Z,97183.22
2023-05-16T12:10:29.562Z,97199.38
2023-05-16T12:14:37.091Z,97218.56
2023-05-16T12:18:43.378Z,97225.22
2023-05-16T12:22:48.155Z,97220.78
2023-05-16T12:26:55.024Z,97220.78
2023-05-16T12:31:00.123Z,97224.44
2023-05-16T12:35:03.541Z,97225.84
2023-05-16T12:39:08.675Z,97225.63
2023-05-16T12:43:16.727Z,97217.16
2023-05-16T12:47:21.766Z,97219.56
2023-05-16T12:51:25.160Z,97199.75
2023-05-16T12:55:29.343Z,97197.13
2023-05-16T12:59:32.741Z,97205.41
2023-05-16T13:07:46.687Z,97193.22
2023-05-16T13:11:50.318Z,97188.34
2023-05-16T13:15:54.128Z,97193.31
2023-05-16T13:19:57.554Z,97181.28
2023-05-16T13:24:03.132Z,97198.59
2023-05-16T13:28:06.664Z,97188.44
2023-05-16T13:32:10.959Z,97185.59
2023-05-16T13:36:14.471Z,97192.84
2023-05-16T13:40:19.556Z,97187.78
2023-05-16T13:44:23.048Z,97192.88
2023-05-16T13:52:48.096Z,97202.63
2023-05-16T13:56:52.913Z,97192.91
2023-05-16T14:00:56.549Z,97190.53
2023-05-16T14:04:59.754Z,97180.03
2023-05-16T14:09:03.836Z,97169.44
2023-05-16T14:13:08.560Z,97174.72
2023-05-16T14:17:12.127Z,97189.66
2023-05-16T14:21:17.095Z,97185.78
2023-05-16T14:25:21.453Z,97187.03
2023-05-16T14:29:26.645Z,97191.09
2023-05-16T14:33:31.290Z,97194.59
2023-05-16T14:37:34.271Z,97187.88
2023-05-16T14:41:38.015Z,97190.50
2023-05-16T14:45:42.866Z,97192.56
2023-05-16T14:49:46.557Z,97204.50
2023-05-16T14:53:49.683Z,97198.25
2023-05-16T14:57:59.684Z,97177.47
2023-05-16T15:02:04.992Z,97172.00
2023-05-16T15:06:09.317Z,97161.31
2023-05-16T15:10:12.749Z,97159.72
2023-05-16T15:14:16.213Z,97166.31
2023-05-16T15:18:20.677Z,97170.31
2023-05-16T15:22:24.511Z,97177.81
2023-05-16T15:26:27.767Z,97184.50
2023-05-16T15:30:31.539Z,97187.78
2023-05-16T15:34:36.578Z,97183.03
2023-05-16T15:38:47.127Z,97178.22
2023-05-16T15:42:50.257Z,97170.59
2023-05-16T15:46:54.286Z,97183.56
2023-05-16T15:50:58.979Z,97187.41
2023-05-16T15:55:02.470Z,97190.03
2023-05-16T15:59:07.495Z,97181.75
2023-05-16T16:03:11.309Z,97201.38
2023-05-16T16:07:15.903Z,97190.66
2023-05-16T16:11:22.009Z,97195.72
2023-05-16T16:15:25.484Z,97184.44
2023-05-16T16:19:29.581Z,97194.91
2023-05-16T16:23:34.390Z,97187.06
2023-05-16T16:27:37.821Z,97182.03
2023-05-16T16:31:41.197Z,97183.63
2023-05-16T16:35:44.623Z,97193.13
2023-05-16T16:39:49.204Z,97193.72
2023-05-16T16:43:53.523Z,97201.41
2023-05-16T16:47:56.776Z,97199.38
2023-05-16T16:52:00.834Z,97201.56
2023-05-16T16:56:05.769Z,97196.75
2023-05-16T17:00:11.980Z,97203.38
2023-05-16T17:04:15.126Z,97199.53
2023-05-16T17:08:18.700Z,97207.03
2023-05-16T17:12:23.514Z,97215.50
2023-05-16T17:16:28.307Z,97212.00
2023-05-16T17:20:31.443Z,97221.25
2023-05-16T17:24:35.132Z,97229.56
2023-05-16T17:28:39.997Z,97223.88
2023-05-16T17:32:43.726Z,97227.28
2023-05-16T17:36:47.495Z,97228.69
2023-05-16T17:40:51.420Z,97231.13
2023-05-16T17:44:55.930Z,97238.75
2023-05-16T17:49:00.327Z,97249.81
2023-05-16T17:53:04.879Z,97245.97
2023-05-16T17:57:09.422Z,97244.56
2023-05-16T18:01:14.161Z,97252.81
2023-05-16T18:05:18.584Z,97247.13
2023-05-16T18:09:22.237Z,97248.72
2023-05-16T18:13:25.494Z,97254.72
2023-05-16T18:17:30.290Z,97253.69
2023-05-16T18:21:33.932Z,97256.91
2023-05-16T18:25:37.769Z,97258.28
2023-05-16T18:29:41.298Z,97251.81
2023-05-16T18:33:46.867Z,97254.19
2023-05-16T18:37:50.821Z,97255.59
2023-05-16T18:41:53.967Z,97251.75
2023-05-16T18:45:58.424Z,97258.38
2023-05-16T18:50:04.860Z,97258.75
2023-05-16T18:54:08.304Z,97262.91
2023-05-16T18:58:11.851Z,97263.28
2023-05-16T19:02:15.170Z,97271.53
2023-05-16T19:06:20.030Z,97269.47
2023-05-16T19:10:27.966Z,97272.66
2023-05-16T19:14:31.578Z,97279.91
2023-05-16T19:18:36.228Z,97284.50
2023-05-16T19:22:41.474Z,97286.69
2023-05-16T19:26:44.881Z,97294.50
2023-05-16T19:30:48.375Z,97290.84
2023-05-16T19:34:53.719Z,97302.88
2023-05-16T19:38:58.574Z,97307.66
2023-05-16T19:43:02.232Z,97310.03
2023-05-16T19:47:05.630Z,97309.59
2023-05-16T19:51:09.510Z,97309.06
2023-05-16T19:55:14.194Z,97313.31
2023-05-16T19:59:17.795Z,97321.53
2023-05-16T20:03:21.585Z,97327.75
2023-05-16T20:07:25.786Z,97337.63
2023-05-16T20:11:30.785Z,97335.38
2023-05-16T20:15:35.544Z,97338.00
2023-05-16T20:19:44.073Z,97331.28
2023-05-16T20:23:47.773Z,97333.13
2023-05-16T20:27:52.913Z,97342.75
2023-05-16T20:31:56.466Z,97332.25
2023-05-16T20:36:00.414Z,97344.31
2023-05-16T20:40:04.413Z,97335.22
2023-05-16T20:44:09.246Z,97343.78
2023-05-16T20:48:14.455Z,97340.91
2023-05-16T20:52:17.817Z,97344.88
2023-05-16T20:56:23.403Z,97345.25
2023-05-16T21:00:27.952Z,97356.47
2023-05-16T21:04:31.498Z,97347.84
2023-05-16T21:08:34.904Z,97365.88
2023-05-16T21:12:38.193Z,97361.19
2023-05-16T21:16:44.879Z,97366.97
2023-05-16T21:20:48.266Z,97364.88
2023-05-16T21:24:52.922Z,97370.47
2023-05-16T21:28:56.631Z,97388.75
2023-05-16T21:33:01.505Z,97386.34
2023-05-16T21:37:05.060Z,97390.13
2023-05-16T21:41:08.300Z,97399.78
2023-05-16T21:45:16.789Z,97400.13
2023-05-16T21:49:21.486Z,97404.53
2023-05-16T21:53:26.771Z,97409.13
2023-05-16T21:57:29.719Z,97406.41
2023-05-16T22:01:33.039Z,97413.25
2023-05-16T22:05:37.919Z,97416.03
2023-05-16T22:09:42.129Z,97421.63
2023-05-16T22:13:45.441Z,97423.63
2023-05-16T22:17:50.079Z,97430.81
2023-05-16T22:21:54.788Z,97434.41
2023-05-16T22:25:58.226Z,97437.38
2023-05-16T22:30:01.580Z,97439.34
2023-05-16T22:34:05.403Z,97450.00
2023-05-16T22:38:10.311Z,97447.56
2023-05-16T22:42:13.726Z,97455.09
2023-05-16T22:46:16.896Z,97450.22
2023-05-16T22:50:20.722Z,97455.16
2023-05-16T22:54:25.716Z,97445.84
2023-05-16T22:58:29.218Z,97455.69
2023-05-16T23:02:32.626Z,97451.25
2023-05-16T23:06:36.241Z,97458.13
2023-05-16T23:10:41.056Z,97459.75
2023-05-16T23:14:45.144Z,97460.38
2023-05-16T23:18:49.976Z,97458.56
2023-05-16T23:22:53.655Z,97448.66
2023-05-16T23:26:58.268Z,97458.75
2023-05-16T23:31:02.205Z,97469.38
2023-05-16T23:35:06.477Z,97469.38
2023-05-16T23:39:10.589Z,97473.78
2023-05-16T23:43:15.833Z,97479.97
2023-05-16T23:47:19.276Z,97483.75
2023-05-16T23:51:22.438Z,97480.34
2023-05-16T23:55:26.443Z,97485.75
2023-05-16T23:59:31.136Z,97486.72
